LPLACYYT

Guest
Details From LPLA - LAJES
To CYYT - ST JOHNS INTL
Flight Number -
Tags generated
Created
Modified
Stats Distance 1,416 nm / 2,623 km
Max Altitude 35,000 ft / 10,668 m
Waypoints 10
Social Downloads 0
Likes 0
Share VATSIM

Download

Looking for another format? Having issues loading an existing format? Contact us
Advertisement - Login to hide

Notes

Using NAT tracks from 28/5/2016 Basic altitude profile: - Ascent Rate: 2500ft/min - Ascent Speed: 250kts - Cruise Altitude: 35000ft - Cruise Speed: 420kts - Descent Rate: 1500ft/min - Descent Speed: 250kts Options: - Use NATs: yes - Use PACOTS: yes - Use low airways: yes - Use high airways: yes

Route

LPLA SIPRU H125 LUKAL 4300N03500W 4400N03500W +47.000_--40.000 J +45.000_--50.000 COLOR CYYT

ID Type Via Altitude Latitude Longitude Leg Dist Tot Dist Heading (true) Name
O LPLA APT - 0 ft / 0 m 38.76441˚ -27.09348˚ - 0 nm - LAJES
SIPRU FIX - 14,900 ft / 4,542 m 39.18000˚ -27.88944˚ 44 nm 44 nm 304° / 304° -
LUKIT FIX H125 (AWY-LO) 28,500 ft / 8,687 m 40.19694˚ -30.00000˚ 115 nm 159 nm 303° / 301° -
LUKAL FIX H125 (AWY-HI) 28,500 ft / 8,687 m 41.25306˚ -32.35583˚ 124 nm 284 nm 301° / 300° -
4300N03500W LATLON - 34,000 ft / 10,363 m 43.00000˚ -35.00000˚ 157 nm 442 nm 313° / 311° -
4400N03500W LATLON - 35,000 ft / 10,668 m 44.00000˚ -35.00000˚ 60 nm 502 nm 0° / 360° -
+47.000_--40.000 LATLON - 34,000 ft / 10,363 m 47.00000˚ -40.00000˚ 276 nm 779 nm 312° / 309° -
+45.000_--50.000 LATLON J (NAT) 35,000 ft / 10,668 m 45.00000˚ -50.00000˚ 433 nm 1212 nm 258° / 250° -
COLOR FIX - 12,300 ft / 3,749 m 46.67333˚ -52.51333˚ 145 nm 1358 nm 315° / 313° -
O CYYT APT - 0 ft / 0 m 47.62013˚ -52.74683˚ 57 nm 1416 nm 351° / 350° ST JOHNS INTL

Altitude Profile

Advertisement - Login to hide

Weather


0- 5 10 15 20 25 30 35+ Temperature / ° C

Clouds and Precipitation
Forecast for 2017-12-13 18:00 UTC. Updated 19 minutes ago

Ground ~20,000 ft ~40,000 ft Winds

LPLA

Details ICAO LPLA (TER)
Name LAJES
Region Portugal
Timezone Atlantic/Azores (UTC-1.0)
Stats Elevation 180 ft / 55 m (AMSL)
Location 38.764410° -27.093482°
Runways 1
Magnetic Variation 8.935° W

METAR

LPLA 131700Z /////KT 9999 FEW013 SCT025 20/16 Q1032

Decode

TAF

TAF LPLA 131100Z 1312/1412 27008KT 9999 FEW014 BKN030= TAF LPPD 131100Z 1312/1412 VRB05KT 9999 SCT015 PROB40 TEMPO 1312/1412 8000 -RA FEW006 BKN012 BECMG 1312/1315 28007KT

Decode

Departure Runways

ID Width Length Bearing (true) Bearing (mag) Surface Threshold Offset Overrun Length
15 197 ft / 60 m 10,869 ft / 3,313 m 140.81° 149.75° Asphalt 0 ft / 0 m 991 ft / 302 m
33 197 ft / 60 m 10,869 ft / 3,313 m 320.82° 329.76° Asphalt 0 ft / 0 m 1,040 ft / 317 m

CYYT

Details ICAO CYYT (YYT)
Name ST JOHNS INTL
Region Canada
Timezone America/St_Johns (UTC-3.5)
Stats Elevation 461 ft / 141 m (AMSL)
Location 47.620132° -52.746829°
Runways 3
Magnetic Variation 18.116° W

METAR

CYYT 131700Z 13019G31KT 1/8SM R11/2600V4000FT/D R16/2200FT/N -DZ FG VV001 04/04 A2972 RMK FG8 PRESFR SLP071

Decode

TAF

TAF AMD TAF AMD CYYT 131653Z 1316/1412 14015G27KT 1/8SM -DZ -RA FG VV001 TEMPO 1316/1401 5/8SM BR VV003 FM140100 17025G35KT 1SM SHRA BR OVC003 FM140500 23020G30KT P6SM BKN030 BKN100 RMK NXT FCST BY 131800Z

Decode

Destination Runways

ID Width Length Bearing (true) Bearing (mag) Surface Threshold Offset Overrun Length
02 98 ft / 30 m 4,863 ft / 1,482 m 356.21° 14.33° Asphalt 0 ft / 0 m 0 ft / 0 m
11 200 ft / 61 m 8,510 ft / 2,594 m 85.88° 104.00° Asphalt 0 ft / 0 m 0 ft / 0 m
16 200 ft / 61 m 7,010 ft / 2,137 m 139.21° 157.33° Asphalt 0 ft / 0 m 0 ft / 0 m
20 98 ft / 30 m 4,863 ft / 1,482 m 176.20° 194.32° Asphalt 0 ft / 0 m 0 ft / 0 m
29 200 ft / 61 m 8,510 ft / 2,594 m 265.91° 284.03° Asphalt 0 ft / 0 m 0 ft / 0 m
34 200 ft / 61 m 7,010 ft / 2,137 m 319.23° 337.35° Asphalt 0 ft / 0 m 0 ft / 0 m

Approach Navaids

Runway Type Ident Frequency Range Bearing (true) Bearing (mag) Slope Elevation
11 Localiser IMP 109.10 MHz 18 nm / 33 km 85.90° 104.01° - 461 ft / 141 m (AMSL)
11 Glidescope IMP 109.10 MHz 10 nm / 19 km 110.00° 128.12° 3.00° 461 ft / 141 m (AMSL)
16 Localiser IYT 110.70 MHz 18 nm / 33 km 139.19° 157.30° - 461 ft / 141 m (AMSL)
16 Glidescope IYT 110.70 MHz 10 nm / 19 km 160.00° 178.12° 3.00° 461 ft / 141 m (AMSL)
29 Localiser UYT 110.30 MHz 18 nm / 33 km 265.89° 284.01° - 461 ft / 141 m (AMSL)
29 Glidescope UYT 110.30 MHz 10 nm / 19 km 290.00° 308.12° 3.00° 461 ft / 141 m (AMSL)

Popular Alternatives